createdAt,value
2023-02-18T00:00:04.087Z,102017.34
2023-02-18T00:02:32.049Z,102007.41
2023-02-18T00:04:58.485Z,102015.41
2023-02-18T00:07:24.920Z,102013.59
2023-02-18T00:09:51.286Z,102004.88
2023-02-18T00:12:17.587Z,101995.53
2023-02-18T00:14:43.880Z,101993.94
2023-02-18T00:17:11.533Z,101982.50
2023-02-18T00:19:37.825Z,101981.91
2023-02-18T00:22:04.148Z,101982.50
2023-02-18T00:24:30.425Z,101977.13
2023-02-18T00:26:56.730Z,101984.03
2023-02-18T00:29:23.066Z,101986.13
2023-02-18T00:31:49.459Z,101988.16
2023-02-18T00:34:17.155Z,101978.69
2023-02-18T00:36:43.499Z,101991.81
2023-02-18T00:39:10.999Z,101988.50
2023-02-18T00:41:37.588Z,101985.38
2023-02-18T00:44:04.268Z,101979.47
2023-02-18T00:46:30.733Z,101979.19
2023-02-18T00:48:57.105Z,101977.13
2023-02-18T00:51:24.833Z,101977.50
2023-02-18T00:53:51.274Z,101976.53
2023-02-18T00:56:17.669Z,101966.69
2023-02-18T00:58:44.174Z,101961.50
2023-02-18T01:01:11.068Z,101964.00
2023-02-18T01:03:38.087Z,101954.31
2023-02-18T01:06:04.615Z,101951.91
2023-02-18T01:08:32.386Z,101940.56
2023-02-18T01:10:59.167Z,101935.25
2023-02-18T01:13:25.630Z,101942.66
2023-02-18T01:15:51.991Z,101939.84
2023-02-18T01:18:18.415Z,101936.50
2023-02-18T01:20:45.188Z,101935.91
2023-02-18T01:23:12.019Z,101940.78
2023-02-18T01:25:40.010Z,101933.63
2023-02-18T01:28:07.063Z,101937.88
2023-02-18T01:30:33.426Z,101939.03
2023-02-18T01:32:59.864Z,101934.50
2023-02-18T01:35:26.259Z,101930.00
2023-02-18T01:37:52.605Z,101925.81
2023-02-18T01:40:19.831Z,101925.13
2023-02-18T01:42:47.852Z,101931.16
2023-02-18T01:45:32.986Z,101928.88
2023-02-18T01:47:59.636Z,101921.59
2023-02-18T01:50:26.616Z,101919.84
2023-02-18T01:52:52.997Z,101917.56
2023-02-18T01:55:19.309Z,101914.06
2023-02-18T01:57:46.987Z,101911.81
2023-02-18T02:00:14.784Z,101898.66
2023-02-18T02:02:44.184Z,101893.59
2023-02-18T02:05:10.628Z,101890.13
2023-02-18T02:07:37.046Z,101893.06
2023-02-18T02:10:03.771Z,101890.69
2023-02-18T02:12:34.814Z,101892.78
2023-02-18T02:15:13.056Z,101886.38
2023-02-18T02:17:45.474Z,101884.38
2023-02-18T02:20:38.657Z,101886.19
2023-02-18T02:23:29.470Z,101882.16
2023-02-18T02:26:10.250Z,101880.47
2023-02-18T02:28:49.796Z,101869.41
2023-02-18T02:31:28.842Z,101872.31
2023-02-18T02:34:06.778Z,101856.53
2023-02-18T02:36:39.213Z,101865.94
2023-02-18T02:39:13.093Z,101864.25
2023-02-18T02:41:46.179Z,101862.56
2023-02-18T02:44:18.775Z,101864.00
2023-02-18T02:46:46.801Z,101864.50
2023-02-18T02:49:19.371Z,101849.09
2023-02-18T02:51:50.188Z,101843.06
2023-02-18T02:54:17.785Z,101849.00
2023-02-18T02:56:44.121Z,101842.81
2023-02-18T02:59:12.920Z,101837.63
2023-02-18T03:01:47.433Z,101826.72
2023-02-18T03:04:22.961Z,101829.78
2023-02-18T03:07:13.253Z,101823.38
2023-02-18T03:09:47.218Z,101821.38
2023-02-18T03:12:18.694Z,101818.19
2023-02-18T03:14:49.062Z,101815.53
2023-02-18T03:17:18.942Z,101814.09
2023-02-18T03:19:47.318Z,101804.59
2023-02-18T03:22:16.877Z,101798.47
2023-02-18T03:24:46.442Z,101794.50
2023-02-18T03:27:15.167Z,101786.66
2023-02-18T03:29:43.146Z,101782.63
2023-02-18T03:32:10.580Z,101780.22
2023-02-18T03:34:40.799Z,101771.28
2023-02-18T03:37:08.136Z,101770.72
2023-02-18T03:39:37.706Z,101760.28
2023-02-18T03:42:05.538Z,101755.09
2023-02-18T03:44:31.919Z,101755.59
2023-02-18T03:46:58.346Z,101750.59
2023-02-18T03:49:24.668Z,101754.47
2023-02-18T03:51:50.982Z,101748.06
2023-02-18T03:54:17.296Z,101739.38
2023-02-18T03:56:43.617Z,101742.28
2023-02-18T03:59:12.690Z,101739.25
2023-02-18T04:01:39.238Z,101729.84
2023-02-18T04:04:05.936Z,101739.78
2023-02-18T04:06:32.303Z,101732.41
2023-02-18T04:08:58.655Z,101724.41
2023-02-18T04:11:24.981Z,101723.97
2023-02-18T04:13:51.303Z,101723.81
2023-02-18T04:16:19.013Z,101719.66
2023-02-18T04:18:45.353Z,101716.28
2023-02-18T04:21:11.655Z,101704.09
2023-02-18T04:23:37.998Z,101712.91
2023-02-18T04:26:04.577Z,101706.50
2023-02-18T04:28:30.903Z,101710.81
2023-02-18T04:30:57.255Z,101707.47
2023-02-18T04:33:24.955Z,101695.72
2023-02-18T04:35:51.327Z,101702.16
2023-02-18T04:38:17.703Z,101708.81
2023-02-18T04:40:44.035Z,101709.16
2023-02-18T04:43:10.342Z,101715.81
2023-02-18T04:45:36.717Z,101711.66
2023-02-18T04:48:03.127Z,101692.19
2023-02-18T04:50:30.849Z,101709.84
2023-02-18T04:52:57.210Z,101698.06
2023-02-18T04:55:23.564Z,101712.34
2023-02-18T04:57:49.854Z,101716.84
2023-02-18T05:00:17.413Z,101705.19
2023-02-18T05:02:44.239Z,101710.81
2023-02-18T05:05:10.582Z,101706.34
2023-02-18T05:07:39.141Z,101693.47
2023-02-18T05:10:06.105Z,101699.63
2023-02-18T05:12:32.445Z,101690.09
2023-02-18T05:14:58.784Z,101693.84
2023-02-18T05:17:25.101Z,101675.81
2023-02-18T05:19:51.411Z,101673.72
2023-02-18T05:22:17.734Z,101680.03
2023-02-18T05:24:45.383Z,101677.75
2023-02-18T05:27:11.675Z,101665.75
2023-02-18T05:29:38.004Z,101670.53
2023-02-18T05:32:04.522Z,101659.03
2023-02-18T05:34:30.859Z,101657.22
2023-02-18T05:36:57.158Z,101645.75
2023-02-18T05:39:23.479Z,101652.28
2023-02-18T05:41:51.144Z,101635.00
2023-02-18T05:44:17.434Z,101629.41
2023-02-18T05:46:43.796Z,101632.91
2023-02-18T05:49:10.184Z,101639.19
2023-02-18T05:51:36.511Z,101635.81
2023-02-18T05:54:02.922Z,101639.72
2023-02-18T05:56:29.258Z,101636.94
2023-02-18T05:58:56.916Z,101643.53
2023-02-18T06:01:23.229Z,101646.19
2023-02-18T06:03:49.572Z,101640.88
2023-02-18T06:06:15.920Z,101654.84
2023-02-18T06:08:42.220Z,101643.53
2023-02-18T06:11:08.498Z,101645.75
2023-02-18T06:13:34.824Z,101640.88
2023-02-18T06:16:02.571Z,101638.63
2023-02-18T06:18:29.210Z,101627.28
2023-02-18T06:20:55.637Z,101622.94
2023-02-18T06:23:21.958Z,101627.41
2023-02-18T06:25:48.362Z,101620.72
2023-02-18T06:28:14.676Z,101625.19
2023-02-18T06:30:40.989Z,101622.94
2023-02-18T06:33:08.729Z,101632.59
2023-02-18T06:35:35.048Z,101622.16
2023-02-18T06:38:01.398Z,101624.09
2023-02-18T06:40:27.785Z,101626.88
2023-02-18T06:42:54.130Z,101629.41
2023-02-18T06:45:21.127Z,101633.16
2023-02-18T06:47:47.642Z,101640.31
2023-02-18T06:50:15.146Z,101632.47
2023-02-18T06:52:42.825Z,101645.88
2023-02-18T06:55:09.153Z,101640.31
2023-02-18T06:57:35.865Z,101635.25
2023-02-18T07:00:02.171Z,101637.50
2023-02-18T07:02:28.542Z,101646.47
2023-02-18T07:04:54.824Z,101651.22
2023-02-18T07:07:21.210Z,101647.88
2023-02-18T07:09:48.849Z,101660.44
2023-02-18T07:12:15.205Z,101651.16
2023-02-18T07:14:41.492Z,101653.44
2023-02-18T07:17:07.791Z,101658.44
2023-02-18T07:19:34.153Z,101659.81
2023-02-18T07:22:00.482Z,101659.81
2023-02-18T07:24:26.830Z,101666.59
2023-02-18T07:26:54.587Z,101682.31
2023-02-18T07:29:20.927Z,101670.75
2023-02-18T07:31:47.411Z,101657.00
2023-02-18T07:34:13.822Z,101660.09
2023-02-18T07:36:40.102Z,101663.47
2023-02-18T07:39:06.389Z,101656.75
2023-02-18T07:41:32.720Z,101673.25
2023-02-18T07:44:00.353Z,101666.63
2023-02-18T07:46:26.683Z,101666.59
2023-02-18T07:48:52.959Z,101672.00
2023-02-18T07:51:19.278Z,101672.56
2023-02-18T07:53:45.648Z,101665.13
2023-02-18T07:56:11.992Z,101670.97
2023-02-18T07:58:39.238Z,101689.19
2023-02-18T08:01:07.735Z,101688.47
2023-02-18T08:03:34.323Z,101691.13
2023-02-18T08:06:00.989Z,101690.00
2023-02-18T08:08:28.632Z,101689.69
2023-02-18T08:10:56.487Z,101683.03
2023-02-18T08:13:23.013Z,101669.88
2023-02-18T08:15:49.399Z,101673.53
2023-02-18T08:18:18.045Z,101665.13
2023-02-18T08:20:44.944Z,101669.63
2023-02-18T08:23:11.255Z,101674.19
2023-02-18T08:25:37.582Z,101683.16
2023-02-18T08:28:04.192Z,101682.88
2023-02-18T08:30:30.620Z,101681.34
2023-02-18T08:32:57.056Z,101691.13
2023-02-18T08:35:24.746Z,101690.88
2023-02-18T08:37:52.743Z,101694.75
2023-02-18T08:40:20.755Z,101689.75
2023-02-18T08:42:47.218Z,101690.28
2023-02-18T08:45:13.576Z,101677.16
2023-02-18T08:48:17.978Z,101681.91
2023-02-18T08:50:28.607Z,101678.84
2023-02-18T08:52:55.056Z,101680.53
2023-02-18T08:55:21.439Z,101685.19
2023-02-18T08:57:48.078Z,101677.75
2023-02-18T09:00:15.514Z,101683.38
2023-02-18T09:02:42.090Z,101677.63
2023-02-18T09:05:08.723Z,101671.81
2023-02-18T09:07:36.598Z,101678.22
2023-02-18T09:10:03.026Z,101676.16
2023-02-18T09:12:29.344Z,101674.19
2023-02-18T09:14:55.728Z,101665.78
2023-02-18T09:17:22.125Z,101667.03
2023-02-18T09:19:48.436Z,101663.13
2023-02-18T09:22:14.778Z,101671.38
2023-02-18T09:24:42.706Z,101670.53
2023-02-18T09:27:11.175Z,101671.09
2023-02-18T09:29:38.577Z,101673.06
2023-02-18T09:32:05.490Z,101670.84
2023-02-18T09:34:32.380Z,101677.84
2023-02-18T09:36:58.913Z,101671.56
2023-02-18T09:39:25.319Z,101672.94
2023-02-18T09:41:54.582Z,101677.41
2023-02-18T09:44:22.952Z,101669.28
2023-02-18T09:46:51.959Z,101675.59
2023-02-18T09:49:19.705Z,101666.09
2023-02-18T09:51:46.420Z,101674.03
2023-02-18T09:54:15.119Z,101682.72
2023-02-18T09:56:42.509Z,101672.53
2023-02-18T09:59:13.195Z,101682.97
2023-02-18T10:01:40.208Z,101666.63
2023-02-18T10:04:10.421Z,101678.47
2023-02-18T10:06:36.871Z,101686.31
2023-02-18T10:09:04.589Z,101681.28
2023-02-18T10:11:31.978Z,101691.03
2023-02-18T10:13:58.695Z,101688.16
2023-02-18T10:16:26.826Z,101692.88
2023-02-18T10:18:55.543Z,101694.78
2023-02-18T10:21:24.177Z,101693.69
2023-02-18T10:23:53.805Z,101706.84
2023-02-18T10:26:21.027Z,101691.50
2023-02-18T10:28:47.542Z,101693.16
2023-02-18T10:31:17.224Z,101695.09
2023-02-18T10:33:47.347Z,101698.75
2023-02-18T10:36:26.876Z,101704.88
2023-02-18T10:39:02.729Z,101712.31
2023-02-18T10:41:33.792Z,101712.06
2023-02-18T10:44:06.188Z,101724.50
2023-02-18T10:46:37.726Z,101728.47
2023-02-18T10:49:19.334Z,101726.78
2023-02-18T10:51:47.901Z,101720.03
2023-02-18T10:54:14.938Z,101723.50
2023-02-18T10:56:42.135Z,101722.97
2023-02-18T10:59:12.505Z,101729.25
2023-02-18T11:01:39.669Z,101715.94
2023-02-18T11:04:08.329Z,101720.28
2023-02-18T11:06:38.851Z,101723.78
2023-02-18T11:09:06.140Z,101715.91
2023-02-18T11:11:34.041Z,101722.19
2023-02-18T11:14:01.649Z,101716.38
2023-02-18T11:16:36.610Z,101732.00
2023-02-18T11:19:02.915Z,101738.13
2023-02-18T11:21:30.279Z,101733.28
2023-02-18T11:24:05.821Z,101734.47
2023-02-18T11:26:33.824Z,101742.72
2023-02-18T11:29:01.391Z,101731.31
2023-02-18T11:31:34.999Z,101732.25
2023-02-18T11:34:02.642Z,101726.94
2023-02-18T11:36:30.053Z,101716.25
2023-02-18T11:38:58.781Z,101719.63
2023-02-18T11:41:31.361Z,101720.25
2023-02-18T11:43:58.390Z,101720.25
2023-02-18T11:46:25.671Z,101714.56
2023-02-18T11:48:52.232Z,101715.22
2023-02-18T11:51:19.991Z,101722.94
2023-02-18T11:54:01.160Z,101718.19
2023-02-18T11:56:28.971Z,101710.25
2023-02-18T11:58:55.441Z,101713.03
2023-02-18T12:01:27.485Z,101705.63
2023-02-18T12:03:56.831Z,101708.16
2023-02-18T12:06:24.731Z,101712.91
2023-02-18T12:08:52.604Z,101707.47
2023-02-18T12:11:25.493Z,101701.06
2023-02-18T12:13:53.903Z,101705.53
2023-02-18T12:16:25.012Z,101719.97
2023-02-18T12:18:59.546Z,101716.88
2023-02-18T12:21:30.042Z,101711.84
2023-02-18T12:24:01.729Z,101705.81
2023-02-18T12:26:32.771Z,101708.22
2023-02-18T12:29:12.739Z,101706.38
2023-02-18T12:31:52.816Z,101701.91
2023-02-18T12:34:26.473Z,101705.56
2023-02-18T12:36:58.395Z,101708.34
2023-02-18T12:39:39.166Z,101707.22
2023-02-18T12:42:13.566Z,101713.66
2023-02-18T12:44:45.150Z,101707.63
2023-02-18T12:47:37.974Z,101706.38
2023-02-18T12:50:13.609Z,101694.06
2023-02-18T12:52:44.088Z,101702.88
2023-02-18T12:55:24.730Z,101697.84
2023-02-18T12:57:57.396Z,101706.97
2023-02-18T13:00:45.437Z,101703.03
2023-02-18T13:03:22.652Z,101702.75
2023-02-18T13:05:56.231Z,101701.06
2023-02-18T13:08:30.380Z,101699.84
2023-02-18T13:11:01.505Z,101696.03
2023-02-18T13:13:31.313Z,101695.22
2023-02-18T13:15:59.412Z,101695.50
2023-02-18T13:18:28.869Z,101703.34
2023-02-18T13:20:56.156Z,101704.44
2023-02-18T13:23:23.320Z,101694.78
2023-02-18T13:25:51.711Z,101699.97
2023-02-18T13:28:23.483Z,101699.41
2023-02-18T13:30:58.596Z,101692.97
2023-02-18T13:33:28.885Z,101699.44
2023-02-18T13:35:57.870Z,101689.06
2023-02-18T13:38:40.679Z,101691.16
2023-02-18T13:41:07.557Z,101692.53
2023-02-18T13:43:34.866Z,101689.63
2023-02-18T13:46:08.429Z,101693.25
2023-02-18T13:48:39.381Z,101679.25
2023-02-18T13:51:06.157Z,101688.75
2023-02-18T13:53:35.856Z,101686.38
2023-02-18T13:56:04.118Z,101690.03
2023-02-18T13:58:32.390Z,101685.41
2023-02-18T14:01:01.754Z,101696.75
2023-02-18T14:03:34.346Z,101691.97
2023-02-18T14:06:00.683Z,101687.50
2023-02-18T14:08:31.172Z,101694.09
2023-02-18T14:11:16.216Z,101691.97
2023-02-18T14:13:43.798Z,101692.81
2023-02-18T14:16:10.575Z,101687.78
2023-02-18T14:18:58.109Z,101691.00
2023-02-18T14:21:35.995Z,101691.44
2023-02-18T14:24:04.570Z,101691.84
2023-02-18T14:26:33.560Z,101691.00
2023-02-18T14:29:05.942Z,101692.56
2023-02-18T14:31:44.842Z,101697.75
2023-02-18T14:34:35.539Z,101689.75
2023-02-18T14:37:10.612Z,101695.78
2023-02-18T14:39:43.272Z,101684.28
2023-02-18T14:42:13.322Z,101681.47
2023-02-18T14:44:49.281Z,101689.59
2023-02-18T14:47:24.607Z,101684.13
2023-02-18T14:49:52.285Z,101688.88
2023-02-18T14:52:23.126Z,101691.81
2023-02-18T14:54:49.557Z,101692.13
2023-02-18T14:57:17.523Z,101686.22
2023-02-18T14:59:44.748Z,101687.47
2023-02-18T15:02:16.676Z,101682.03
2023-02-18T15:04:42.996Z,101682.03
2023-02-18T15:07:09.709Z,101687.22
2023-02-18T15:09:44.289Z,101686.25
2023-02-18T15:12:14.439Z,101686.50
2023-02-18T15:14:42.204Z,101678.25
2023-02-18T15:17:13.440Z,101686.94
2023-02-18T15:19:41.020Z,101685.13
2023-02-18T15:22:14.416Z,101682.88
2023-02-18T15:24:42.120Z,101675.88
2023-02-18T15:27:12.245Z,101687.34
2023-02-18T15:29:38.665Z,101690.31
2023-02-18T15:32:14.398Z,101680.66
2023-02-18T15:34:42.829Z,101692.81
2023-02-18T15:37:13.580Z,101677.81
2023-02-18T15:39:42.185Z,101686.22
2023-02-18T15:42:13.022Z,101684.41
2023-02-18T15:44:44.781Z,101675.84
2023-02-18T15:47:11.109Z,101676.84
2023-02-18T15:49:38.294Z,101676.41
2023-02-18T15:52:05.400Z,101681.59
2023-02-18T15:54:32.088Z,101684.69
2023-02-18T15:57:02.848Z,101686.66
2023-02-18T15:59:30.176Z,101683.47
2023-02-18T16:01:57.707Z,101675.88
2023-02-18T16:04:28.831Z,101676.59
2023-02-18T16:06:55.647Z,101671.41
2023-02-18T16:09:23.449Z,101673.66
2023-02-18T16:11:51.471Z,101675.47
2023-02-18T16:14:27.467Z,101675.19
2023-02-18T16:17:13.874Z,101675.19
2023-02-18T16:19:51.657Z,101679.25
2023-02-18T16:22:26.375Z,101677.72
2023-02-18T16:24:55.662Z,101679.09
2023-02-18T16:27:21.981Z,101685.13
2023-02-18T16:29:51.372Z,101687.66
2023-02-18T16:32:17.882Z,101690.03
2023-02-18T16:34:44.226Z,101688.22
2023-02-18T16:37:10.874Z,101691.84
2023-02-18T16:39:37.286Z,101682.47
2023-02-18T16:42:03.701Z,101688.75
2023-02-18T16:44:31.819Z,101688.19
2023-02-18T16:46:59.526Z,101699.09
2023-02-18T16:49:25.831Z,101695.88
2023-02-18T16:51:52.238Z,101698.94
2023-02-18T16:54:18.539Z,101700.75
2023-02-18T16:56:44.890Z,101698.28
2023-02-18T16:59:11.211Z,101692.38
2023-02-18T17:01:40.105Z,101690.13
2023-02-18T17:04:10.911Z,101689.47
2023-02-18T17:06:37.245Z,101685.66
2023-02-18T17:09:06.562Z,101686.09
2023-02-18T17:11:33.667Z,101689.00
2023-02-18T17:14:01.954Z,101683.94
2023-02-18T17:16:28.566Z,101687.03
2023-02-18T17:18:54.934Z,101693.47
2023-02-18T17:21:23.980Z,101686.78
2023-02-18T17:23:50.648Z,101685.22
2023-02-18T17:26:18.706Z,101686.91
2023-02-18T17:28:45.252Z,101699.50
2023-02-18T17:31:13.916Z,101701.69
2023-02-18T17:33:40.380Z,101694.44
2023-02-18T17:36:07.048Z,101706.03
2023-02-18T17:38:34.883Z,101688.72
2023-02-18T17:41:01.157Z,101701.28
2023-02-18T17:43:27.455Z,101691.50
2023-02-18T17:45:55.108Z,101693.03
2023-02-18T17:48:21.605Z,101687.03
2023-02-18T17:50:47.958Z,101693.56
2023-02-18T17:53:14.860Z,101692.34
2023-02-18T17:55:43.264Z,101700.97
2023-02-18T17:58:10.005Z,101687.84
2023-02-18T18:00:38.063Z,101686.16
2023-02-18T18:03:04.815Z,101694.69
2023-02-18T18:05:32.209Z,101696.78
2023-02-18T18:07:58.911Z,101693.44
2023-02-18T18:10:26.176Z,101693.19
2023-02-18T18:12:53.969Z,101691.88
2023-02-18T18:15:23.253Z,101694.69
2023-02-18T18:17:49.604Z,101698.47
2023-02-18T18:20:16.235Z,101694.53
2023-02-18T18:22:42.907Z,101692.34
2023-02-18T18:25:15.853Z,101697.66
2023-02-18T18:27:42.167Z,101697.66
2023-02-18T18:30:10.749Z,101684.75
2023-02-18T18:32:37.059Z,101695.53
2023-02-18T18:35:03.509Z,101678.34
2023-02-18T18:37:29.840Z,101698.50
2023-02-18T18:39:56.274Z,101705.63
2023-02-18T18:42:22.583Z,101711.19
2023-02-18T18:44:48.940Z,101705.16
2023-02-18T18:47:16.583Z,101708.66
2023-02-18T18:49:42.914Z,101692.88
2023-02-18T18:52:14.245Z,101695.28
2023-02-18T18:54:40.526Z,101697.09
2023-02-18T18:57:06.852Z,101692.34
2023-02-18T18:59:33.165Z,101700.31
2023-02-18T19:01:59.465Z,101695.03
2023-02-18T19:04:27.189Z,101682.84
2023-02-18T19:06:53.551Z,101692.38
2023-02-18T19:09:19.879Z,101695.75
2023-02-18T19:11:46.268Z,101693.91
2023-02-18T19:14:13.213Z,101700.19
2023-02-18T19:16:42.109Z,101695.59
2023-02-18T19:19:09.269Z,101695.72
2023-02-18T19:21:36.958Z,101690.94
2023-02-18T19:24:03.417Z,101685.38
2023-02-18T19:26:29.734Z,101670.81
2023-02-18T19:28:56.041Z,101672.78
2023-02-18T19:31:22.448Z,101671.66
2023-02-18T19:33:48.819Z,101675.59
2023-02-18T19:36:15.137Z,101676.69
2023-02-18T19:38:42.842Z,101674.03
2023-02-18T19:41:10.231Z,101671.50
2023-02-18T19:43:36.747Z,101676.81
2023-02-18T19:46:07.398Z,101665.09
2023-02-18T19:48:33.729Z,101673.06
2023-02-18T19:51:01.197Z,101668.84
2023-02-18T19:53:27.594Z,101664.09
2023-02-18T19:56:01.275Z,101660.22
2023-02-18T19:58:28.982Z,101659.38
2023-02-18T20:00:56.140Z,101645.50
2023-02-18T20:03:22.431Z,101635.13
2023-02-18T20:05:48.718Z,101637.25
2023-02-18T20:08:15.066Z,101634.59
2023-02-18T20:10:41.412Z,101630.41
2023-02-18T20:13:09.053Z,101637.13
2023-02-18T20:15:35.467Z,101639.78
2023-02-18T20:18:01.830Z,101634.72
2023-02-18T20:20:28.180Z,101634.16
2023-02-18T20:22:54.509Z,101634.03
2023-02-18T20:25:20.832Z,101631.66
2023-02-18T20:27:59.856Z,101642.28
2023-02-18T20:30:28.597Z,101633.63
2023-02-18T20:32:54.966Z,101636.69
2023-02-18T20:35:21.286Z,101639.78
2023-02-18T20:37:47.684Z,101638.63
2023-02-18T20:40:14.026Z,101617.53
2023-02-18T20:42:40.380Z,101612.22
2023-02-18T20:45:07.033Z,101609.84
2023-02-18T20:47:34.693Z,101605.34
2023-02-18T20:50:01.028Z,101599.75
2023-02-18T20:52:27.414Z,101587.16
2023-02-18T20:54:53.746Z,101591.09
2023-02-18T20:57:20.084Z,101601.44
2023-02-18T20:59:46.528Z,101606.75
2023-02-18T21:02:13.469Z,101609.41
2023-02-18T21:04:41.155Z,101606.75
2023-02-18T21:07:07.465Z,101609.41
2023-02-18T21:09:33.794Z,101610.81
2023-02-18T21:12:00.133Z,101617.69
2023-02-18T21:14:26.539Z,101605.94
2023-02-18T21:16:52.953Z,101615.44
2023-02-18T21:19:19.714Z,101620.06
2023-02-18T21:21:47.456Z,101624.94
2023-02-18T21:24:13.785Z,101616.25
2023-02-18T21:26:40.121Z,101604.78
2023-02-18T21:29:07.180Z,101610.53
2023-02-18T21:31:34.555Z,101612.34
2023-02-18T21:34:01.245Z,101609.53
2023-02-18T21:36:27.761Z,101609.00
2023-02-18T21:38:56.715Z,101609.84
2023-02-18T21:41:23.397Z,101603.94
2023-02-18T21:43:50.035Z,101595.00
2023-02-18T21:46:17.291Z,101598.63
2023-02-18T21:48:43.620Z,101598.88
2023-02-18T21:51:10.248Z,101598.63
2023-02-18T21:53:36.698Z,101588.00
2023-02-18T21:56:10.073Z,101593.03
2023-02-18T21:58:36.395Z,101591.50
2023-02-18T22:01:02.759Z,101572.91
2023-02-18T22:03:29.100Z,101572.91
2023-02-18T22:05:55.432Z,101555.69
2023-02-18T22:08:21.721Z,101555.53
2023-02-18T22:10:48.014Z,101554.44
2023-02-18T22:13:15.625Z,101542.25
2023-02-18T22:15:42.166Z,101521.97
2023-02-18T22:18:08.483Z,101528.13
2023-02-18T22:20:34.782Z,101560.59
2023-02-18T22:23:01.062Z,101563.94
2023-02-18T22:25:27.370Z,101565.75
2023-02-18T22:27:53.693Z,101539.59
2023-02-18T22:30:21.397Z,101546.59
2023-02-18T22:32:47.700Z,101534.59
2023-02-18T22:35:16.584Z,101555.84
2023-02-18T22:37:43.161Z,101556.69
2023-02-18T22:40:09.949Z,101560.19
2023-02-18T22:42:36.261Z,101567.59
2023-02-18T22:45:02.625Z,101574.31
2023-02-18T22:47:30.328Z,101574.44
2023-02-18T22:49:56.608Z,101586.88
2023-02-18T22:52:22.955Z,101587.72
2023-02-18T22:54:49.263Z,101582.16
2023-02-18T22:57:15.608Z,101583.25
2023-02-18T22:59:41.941Z,101574.56
2023-02-18T23:02:08.291Z,101570.69
2023-02-18T23:04:38.269Z,101569.84
2023-02-18T23:07:04.631Z,101565.50
2023-02-18T23:09:30.937Z,101565.06
2023-02-18T23:11:57.614Z,101556.81
2023-02-18T23:14:24.424Z,101562.13
2023-02-18T23:16:53.340Z,101561.28
2023-02-18T23:19:19.811Z,101553.88
2023-02-18T23:21:47.963Z,101556.38
2023-02-18T23:24:14.501Z,101553.06
2023-02-18T23:26:40.894Z,101555.72
2023-02-18T23:29:07.179Z,101552.22
2023-02-18T23:31:33.735Z,101546.59
2023-02-18T23:34:00.996Z,101547.88
2023-02-18T23:36:28.303Z,101558.63
2023-02-18T23:38:57.108Z,101549.13
2023-02-18T23:41:24.129Z,101553.84
2023-02-18T23:43:50.627Z,101545.47
2023-02-18T23:46:17.758Z,101553.03
2023-02-18T23:48:44.090Z,101549.13
2023-02-18T23:51:12.493Z,101550.22
2023-02-18T23:53:38.927Z,101551.91
2023-02-18T23:56:09.309Z,101549.97
2023-02-18T23:58:35.648Z,101543.94
